Terminal Aerodrome Forecast
Issued by NWS

Home | Current Version | Previous Version | Text Only | Print | Product List | Glossary On
Versions: 1 2 3 4 5 6 7 8 9 10 11 12 13 14 15 16
992
FTUS43 KJKL 131749
TAFSME
TAF
KSME 131749Z 1318/1418 23012G22KT P6SM SCT080
     FM140600 27012G22KT P6SM BKN030
     FM140900 31008G16KT P6SM OVC015=

USA.gov is the U.S. government's official web portal to all federal, state and local government web resources and services.